Time;durP1;ratioP1;P1;durP2;ratioP2;P2;SDS_P1;SDS_P2;PMS_P1;PMS_P2;Temp;Humidity;BMP_temperature;BMP_pressure;BME280_temperature;BME280_humidity;BME280_pressure;Samples;Min_cycle;Max_cycle;Signal;HPM_P1;HPM_P2
2021/06/27 00:00:25;;;;;;;11.23;10.27;;;;;;;;;;5011504;28;20433;-48
2021/06/27 00:02:51;;;;;;;10.83;9.73;;;;;;;;;;5011679;28;20381;-48
2021/06/27 00:05:19;;;;;;;12.77;11.67;;;;;;;;;;5011758;28;20922;-48
2021/06/27 00:07:45;;;;;;;11.40;9.77;;;;;;;;;;5011461;28;20453;-48
2021/06/27 00:10:14;;;;;;;10.97;9.87;;;;;;;;;;5011472;28;20911;-48
2021/06/27 00:12:40;;;;;;;11.30;10.20;;;;;;;;;;5011350;28;20416;-48
2021/06/27 00:15:08;;;;;;;11.43;9.93;;;;;;;;;;5011451;28;20786;-48
2021/06/27 00:17:33;;;;;;;12.23;11.13;;;;;;;;;;5011531;28;20944;-48
2021/06/27 00:20:00;;;;;;;11.90;10.70;;;;;;;;;;5011667;28;20412;-48
2021/06/27 00:22:26;;;;;;;12.20;11.00;;;;;;;;;;5011136;28;20894;-47
2021/06/27 00:24:52;;;;;;;12.37;11.17;;;;;;;;;;5011496;28;20442;-48
2021/06/27 00:27:19;;;;;;;11.63;10.43;;;;;;;;;;5011305;28;20532;-48
2021/06/27 00:29:45;;;;;;;14.10;11.87;;;;;;;;;;5011260;28;20367;-48
2021/06/27 00:32:12;;;;;;;11.80;10.70;;;;;;;;;;5011269;28;20836;-48
2021/06/27 00:34:38;;;;;;;12.03;10.90;;;;;;;;;;5011502;28;20384;-48
2021/06/27 00:37:04;;;;;;;13.90;12.30;;;;;;;;;;5011364;28;20392;-48
2021/06/27 00:39:30;;;;;;;13.90;12.50;;;;;;;;;;5011277;28;20409;-48
2021/06/27 00:41:56;;;;;;;13.50;12.07;;;;;;;;;;5011076;28;20426;-48
2021/06/27 00:44:22;;;;;;;14.63;13.13;;;;;;;;;;5011294;28;20924;-48
2021/06/27 00:46:52;;;;;;;13.23;11.90;;;;;;;;;;5011311;28;20899;-48
2021/06/27 00:49:18;;;;;;;13.23;11.93;;;;;;;;;;5011365;28;20401;-48
2021/06/27 00:51:44;;;;;;;13.30;12.10;;;;;;;;;;5011174;28;20405;-48
2021/06/27 00:54:10;;;;;;;12.80;11.60;;;;;;;;;;5011133;28;20419;-48
2021/06/27 00:56:37;;;;;;;13.90;12.57;;;;;;;;;;5011371;28;20378;-48
2021/06/27 00:59:03;;;;;;;13.70;12.30;;;;;;;;;;5011156;28;20493;-49
2021/06/27 01:01:29;;;;;;;13.33;11.93;;;;;;;;;;5010498;28;20448;-48
2021/06/27 01:03:55;;;;;;;14.00;12.60;;;;;;;;;;5010629;28;20448;-48
2021/06/27 01:06:21;;;;;;;14.20;12.73;;;;;;;;;;5010906;28;20433;-48
2021/06/27 01:08:47;;;;;;;13.47;12.17;;;;;;;;;;5011506;28;20936;-48
2021/06/27 01:11:13;;;;;;;14.63;12.90;;;;;;;;;;5014911;28;20414;-48
2021/06/27 01:13:39;;;;;;;14.13;12.83;;;;;;;;;;5015252;28;20480;-48
2021/06/27 01:16:05;;;;;;;14.77;13.10;;;;;;;;;;5015486;28;20484;-48
2021/06/27 01:18:31;;;;;;;14.90;13.40;;;;;;;;;;5015135;28;20931;-48
2021/06/27 01:20:57;;;;;;;15.47;13.97;;;;;;;;;;5014940;28;20511;-48
2021/06/27 01:23:23;;;;;;;15.00;13.50;;;;;;;;;;5014887;28;20380;-48
2021/06/27 01:25:54;;;;;;;14.90;13.40;;;;;;;;;;5015119;28;20382;-48
2021/06/27 01:28:20;;;;;;;14.80;12.80;;;;;;;;;;5015038;28;20514;-48
2021/06/27 01:30:47;;;;;;;17.07;13.63;;;;;;;;;;5014789;28;20974;-48
2021/06/27 01:33:14;;;;;;;15.17;13.57;;;;;;;;;;5015304;28;20375;-48
2021/06/27 01:35:41;;;;;;;13.73;12.33;;;;;;;;;;5015005;28;20463;-49
2021/06/27 01:38:07;;;;;;;14.73;12.60;;;;;;;;;;5015147;28;20380;-48
2021/06/27 01:40:34;;;;;;;16.13;13.90;;;;;;;;;;5014536;28;20978;-48
2021/06/27 01:43:08;;;;;;;13.73;12.43;;;;;;;;;;5014906;28;20383;-48
2021/06/27 01:45:34;;;;;;;16.17;13.50;;;;;;;;;;5014790;28;20520;-48
2021/06/27 01:48:01;;;;;;;14.73;13.20;;;;;;;;;;5014618;28;20440;-48
2021/06/27 01:50:28;;;;;;;18.00;14.53;;;;;;;;;;5012968;28;20408;-48
2021/06/27 01:52:54;;;;;;;16.13;14.40;;;;;;;;;;5014482;28;20406;-49
2021/06/27 01:55:21;;;;;;;15.73;14.20;;;;;;;;;;5014661;28;20399;-48
2021/06/27 01:57:47;;;;;;;15.77;14.00;;;;;;;;;;5014447;28;20386;-48
2021/06/27 02:00:14;;;;;;;15.90;14.30;;;;;;;;;;5014107;28;20398;-48
2021/06/27 02:02:40;;;;;;;16.07;14.37;;;;;;;;;;5014405;28;20383;-48
2021/06/27 02:05:07;;;;;;;16.90;15.20;;;;;;;;;;5014132;28;20887;-48
2021/06/27 02:07:33;;;;;;;17.20;15.40;;;;;;;;;;5014037;28;20443;-48
2021/06/27 02:10:01;;;;;;;19.10;14.70;;;;;;;;;;5013863;28;20398;-48
2021/06/27 02:12:30;;;;;;;15.13;13.63;;;;;;;;;;5014081;28;20411;-48
2021/06/27 02:14:55;;;;;;;16.07;13.27;;;;;;;;;;5013996;28;20893;-48
2021/06/27 02:17:22;;;;;;;15.17;13.57;;;;;;;;;;5014127;28;20408;-48
2021/06/27 02:19:53;;;;;;;14.10;12.70;;;;;;;;;;5013925;28;20416;-48
2021/06/27 02:22:19;;;;;;;15.50;14.00;;;;;;;;;;5012815;28;20387;-48
2021/06/27 02:24:46;;;;;;;14.63;13.13;;;;;;;;;;5012557;28;20411;-48
2021/06/27 02:27:12;;;;;;;19.00;14.70;;;;;;;;;;5013973;28;20433;-48
2021/06/27 02:29:37;;;;;;;15.30;13.07;;;;;;;;;;5014027;28;20399;-48
2021/06/27 02:32:05;;;;;;;15.53;13.93;;;;;;;;;;5013350;28;21090;-48
2021/06/27 02:34:31;;;;;;;15.47;14.00;;;;;;;;;;5013514;28;20400;-48
2021/06/27 02:36:57;;;;;;;16.33;14.73;;;;;;;;;;5013477;28;20482;-48
2021/06/27 02:39:23;;;;;;;15.13;13.70;;;;;;;;;;5013498;28;20418;-48
2021/06/27 02:41:49;;;;;;;16.60;13.90;;;;;;;;;;5012958;28;21003;-48
2021/06/27 02:44:15;;;;;;;15.60;14.00;;;;;;;;;;5013466;28;20435;-48
2021/06/27 02:46:41;;;;;;;16.23;14.50;;;;;;;;;;5013272;28;20938;-48
2021/06/27 02:49:07;;;;;;;16.43;14.83;;;;;;;;;;5013378;28;20516;-48
2021/06/27 02:51:34;;;;;;;15.50;14.00;;;;;;;;;;5013139;28;20973;-48
2021/06/27 02:54:00;;;;;;;17.63;15.10;;;;;;;;;;5013208;28;20870;-48
2021/06/27 02:56:26;;;;;;;16.90;15.17;;;;;;;;;;5013102;28;20770;-48
2021/06/27 02:58:52;;;;;;;16.50;14.60;;;;;;;;;;5013280;28;20908;-48
2021/06/27 03:01:18;;;;;;;15.77;14.10;;;;;;;;;;5012824;28;20553;-48
2021/06/27 03:03:45;;;;;;;14.87;13.37;;;;;;;;;;5013028;28;20720;-48
2021/06/27 03:06:12;;;;;;;15.70;13.97;;;;;;;;;;5012852;28;20396;-48
2021/06/27 03:08:38;;;;;;;15.17;13.37;;;;;;;;;;5012982;28;20749;-48
2021/06/27 03:11:05;;;;;;;16.00;14.33;;;;;;;;;;5012443;28;20502;-48
2021/06/27 03:13:36;;;;;;;17.53;14.20;;;;;;;;;;5012845;28;20412;-48
2021/06/27 03:16:02;;;;;;;15.33;13.93;;;;;;;;;;5012970;28;20748;-48
2021/06/27 03:18:28;;;;;;;15.30;13.80;;;;;;;;;;5012794;28;20430;-48
2021/06/27 03:20:55;;;;;;;17.40;15.70;;;;;;;;;;5012281;28;20845;-48
2021/06/27 03:23:21;;;;;;;17.93;15.07;;;;;;;;;;5012786;28;20772;-49
2021/06/27 03:25:47;;;;;;;18.03;15.57;;;;;;;;;;5011930;28;20378;-48
2021/06/27 03:28:13;;;;;;;17.40;14.50;;;;;;;;;;5012627;28;20977;-48
2021/06/27 03:30:39;;;;;;;16.53;14.53;;;;;;;;;;5012260;28;20894;-48
2021/06/27 03:33:06;;;;;;;17.33;15.17;;;;;;;;;;5012506;28;20406;-48
2021/06/27 03:35:32;;;;;;;19.33;14.33;;;;;;;;;;5012590;28;20909;-48
2021/06/27 03:38:07;;;;;;;14.87;13.27;;;;;;;;;;5012507;28;20424;-48
2021/06/27 03:40:33;;;;;;;14.87;13.37;;;;;;;;;;5012365;28;20397;-48
2021/06/27 03:43:01;;;;;;;13.80;12.50;;;;;;;;;;5012232;28;20401;-48
2021/06/27 03:45:27;;;;;;;16.10;13.13;;;;;;;;;;5012200;28;20377;-48
2021/06/27 03:47:53;;;;;;;14.93;13.43;;;;;;;;;;5012190;28;20434;-48
2021/06/27 03:50:19;;;;;;;14.87;13.20;;;;;;;;;;5011929;28;20417;-48
2021/06/27 03:52:46;;;;;;;16.00;14.20;;;;;;;;;;5011922;28;20870;-48
2021/06/27 03:55:14;;;;;;;16.23;13.50;;;;;;;;;;5012169;28;20875;-48
2021/06/27 03:57:40;;;;;;;16.20;14.50;;;;;;;;;;5012062;28;20435;-48
2021/06/27 04:00:07;;;;;;;16.53;14.70;;;;;;;;;;5012111;28;20847;-48
2021/06/27 04:02:32;;;;;;;16.00;14.30;;;;;;;;;;5011974;28;20854;-48
2021/06/27 04:04:58;;;;;;;15.77;14.03;;;;;;;;;;5012276;28;20429;-48
2021/06/27 04:07:26;;;;;;;15.00;13.60;;;;;;;;;;5012504;28;20917;-48
2021/06/27 04:09:52;;;;;;;15.57;13.53;;;;;;;;;;5012284;28;20403;-48
2021/06/27 04:12:18;;;;;;;17.33;14.53;;;;;;;;;;5011883;28;20397;-48
2021/06/27 04:14:45;;;;;;;22.50;14.43;;;;;;;;;;5012066;28;20387;-48
2021/06/27 04:17:12;;;;;;;15.27;13.67;;;;;;;;;;5012180;28;20379;-48
2021/06/27 04:19:38;;;;;;;16.40;13.87;;;;;;;;;;5011840;28;20427;-48
2021/06/27 04:22:04;;;;;;;15.17;13.57;;;;;;;;;;5011342;28;20883;-48
2021/06/27 04:24:32;;;;;;;16.00;14.37;;;;;;;;;;5011678;28;20400;-48
2021/06/27 04:26:58;;;;;;;16.57;13.90;;;;;;;;;;5011648;28;20479;-48
2021/06/27 04:29:26;;;;;;;16.93;15.20;;;;;;;;;;5011605;28;20469;-48
2021/06/27 04:31:52;;;;;;;16.37;14.10;;;;;;;;;;5011196;28;20486;-49
2021/06/27 04:34:20;;;;;;;16.73;14.33;;;;;;;;;;5011420;28;20404;-48
2021/06/27 04:36:47;;;;;;;19.40;15.33;;;;;;;;;;5011606;28;20413;-48
2021/06/27 04:39:15;;;;;;;16.87;14.60;;;;;;;;;;5011264;28;20412;-48
2021/06/27 04:41:42;;;;;;;17.73;14.87;;;;;;;;;;5011010;28;20420;-48
2021/06/27 04:44:08;;;;;;;22.90;15.43;;;;;;;;;;5010821;28;20386;-48
2021/06/27 04:46:34;;;;;;;20.50;15.80;;;;;;;;;;5011165;28;20464;-48
2021/06/27 04:49:00;;;;;;;21.43;15.27;;;;;;;;;;5010975;28;20423;-48
2021/06/27 04:51:26;;;;;;;19.70;16.10;;;;;;;;;;5010904;28;20396;-48
2021/06/27 04:53:52;;;;;;;17.63;15.80;;;;;;;;;;5010932;28;20479;-48
2021/06/27 04:56:18;;;;;;;17.40;15.80;;;;;;;;;;5011064;28;20422;-48
2021/06/27 04:58:44;;;;;;;21.60;15.60;;;;;;;;;;5010874;28;20442;-48
2021/06/27 05:01:10;;;;;;;16.03;14.33;;;;;;;;;;5010743;28;20460;-48
2021/06/27 05:03:36;;;;;;;17.77;15.77;;;;;;;;;;5010779;28;20384;-48
2021/06/27 05:06:03;;;;;;;16.43;14.83;;;;;;;;;;5010940;28;20448;-48
2021/06/27 05:08:29;;;;;;;16.97;15.10;;;;;;;;;;5010784;28;20435;-48
2021/06/27 05:10:55;;;;;;;16.43;14.80;;;;;;;;;;5010482;28;20431;-48
2021/06/27 05:13:21;;;;;;;18.30;16.37;;;;;;;;;;5010968;28;20417;-48
2021/06/27 05:15:47;;;;;;;16.37;14.33;;;;;;;;;;5010871;28;20412;-48
2021/06/27 05:18:13;;;;;;;15.83;14.13;;;;;;;;;;5010698;28;20395;-48
2021/06/27 05:20:39;;;;;;;16.97;15.37;;;;;;;;;;5010504;28;20431;-49
2021/06/27 05:23:05;;;;;;;16.20;14.50;;;;;;;;;;5010700;28;20381;-48
2021/06/27 05:25:31;;;;;;;15.60;14.10;;;;;;;;;;5010562;28;20898;-48
2021/06/27 05:27:57;;;;;;;17.90;14.77;;;;;;;;;;5010763;28;20458;-48
2021/06/27 05:30:23;;;;;;;16.13;14.50;;;;;;;;;;5010155;28;20440;-49
2021/06/27 05:32:49;;;;;;;15.83;14.00;;;;;;;;;;5011257;28;20480;-49
2021/06/27 05:35:15;;;;;;;18.30;15.40;;;;;;;;;;5010548;28;20405;-48
2021/06/27 05:37:41;;;;;;;16.47;14.63;;;;;;;;;;5010713;28;20411;-48
2021/06/27 05:40:07;;;;;;;15.07;13.77;;;;;;;;;;5010413;28;20916;-48
2021/06/27 05:42:33;;;;;;;15.63;13.80;;;;;;;;;;5010350;28;20465;-49
2021/06/27 05:44:59;;;;;;;15.73;14.23;;;;;;;;;;5010489;28;20488;-48
2021/06/27 05:47:25;;;;;;;16.33;13.60;;;;;;;;;;5010500;28;20421;-48
2021/06/27 05:49:51;;;;;;;14.47;12.97;;;;;;;;;;5010313;28;20461;-49
2021/06/27 05:52:17;;;;;;;15.07;13.07;;;;;;;;;;5010324;28;20402;-49
2021/06/27 05:54:43;;;;;;;13.97;12.57;;;;;;;;;;5010299;28;20457;-48
2021/06/27 05:57:09;;;;;;;15.00;12.97;;;;;;;;;;5012961;28;20407;-49
2021/06/27 05:59:35;;;;;;;13.20;11.90;;;;;;;;;;5013768;28;20465;-48
2021/06/27 06:02:01;;;;;;;12.00;10.70;;;;;;;;;;5013716;28;20418;-49
2021/06/27 06:04:29;;;;;;;14.53;12.33;;;;;;;;;;5013738;28;20723;-48
2021/06/27 06:06:55;;;;;;;12.37;11.27;;;;;;;;;;5013840;28;20549;-49
2021/06/27 06:09:20;;;;;;;15.70;11.20;;;;;;;;;;5013587;28;20633;-48
2021/06/27 06:11:47;;;;;;;13.00;11.80;;;;;;;;;;5013449;28;20477;-49
2021/06/27 06:14:13;;;;;;;12.70;11.60;;;;;;;;;;5013740;28;20887;-49
2021/06/27 06:16:39;;;;;;;11.50;10.50;;;;;;;;;;5013650;28;20426;-49
2021/06/27 06:19:05;;;;;;;12.07;10.87;;;;;;;;;;5013674;28;20803;-50
2021/06/27 06:21:31;;;;;;;12.70;11.50;;;;;;;;;;5013236;28;20434;-49
2021/06/27 06:23:57;;;;;;;12.53;11.40;;;;;;;;;;5013563;28;20494;-49
2021/06/27 06:26:23;;;;;;;11.63;10.50;;;;;;;;;;5013399;28;20411;-49
2021/06/27 06:28:49;;;;;;;12.50;11.20;;;;;;;;;;5013636;28;20440;-49
2021/06/27 06:31:15;;;;;;;10.87;9.77;;;;;;;;;;5013006;28;21391;-49
2021/06/27 06:33:41;;;;;;;13.37;10.67;;;;;;;;;;5013451;28;20400;-49
2021/06/27 06:36:07;;;;;;;11.83;10.63;;;;;;;;;;5013442;28;20890;-49
2021/06/27 06:38:33;;;;;;;15.00;10.77;;;;;;;;;;5013537;28;20484;-48
2021/06/27 06:40:59;;;;;;;10.50;9.27;;;;;;;;;;5012944;28;20512;-49
2021/06/27 06:43:25;;;;;;;10.93;10.00;;;;;;;;;;5013329;28;20858;-49
2021/06/27 06:45:51;;;;;;;10.30;9.20;;;;;;;;;;5013103;28;20578;-49
2021/06/27 06:48:17;;;;;;;11.40;10.40;;;;;;;;;;5013088;28;20463;-49
2021/06/27 06:50:43;;;;;;;10.43;9.60;;;;;;;;;;5012683;28;20516;-49
2021/06/27 06:53:09;;;;;;;10.13;9.23;;;;;;;;;;5013021;28;20495;-49
2021/06/27 06:55:35;;;;;;;12.10;10.80;;;;;;;;;;5012875;28;20404;-48
2021/06/27 06:58:01;;;;;;;11.40;10.30;;;;;;;;;;5012971;28;20459;-49
2021/06/27 07:00:27;;;;;;;10.57;9.10;;;;;;;;;;5012341;28;20435;-49
2021/06/27 07:02:53;;;;;;;10.00;9.00;;;;;;;;;;5012845;28;20421;-49
2021/06/27 07:05:19;;;;;;;10.83;9.73;;;;;;;;;;5012628;28;20921;-48
2021/06/27 07:07:45;;;;;;;11.63;10.53;;;;;;;;;;5012235;28;21004;-49
2021/06/27 07:10:12;;;;;;;10.73;9.70;;;;;;;;;;5012744;28;20429;-50
2021/06/27 07:12:38;;;;;;;10.80;9.90;;;;;;;;;;5012336;28;20397;-49
2021/06/27 07:15:05;;;;;;;11.20;10.00;;;;;;;;;;5012661;28;20423;-49
2021/06/27 07:17:31;;;;;;;10.53;9.63;;;;;;;;;;5012402;28;20404;-49
2021/06/27 07:19:57;;;;;;;9.67;8.80;;;;;;;;;;5012431;28;20417;-49
2021/06/27 07:22:23;;;;;;;10.37;9.47;;;;;;;;;;5012114;28;20421;-49
2021/06/27 07:24:49;;;;;;;11.90;10.63;;;;;;;;;;5012421;28;20493;-49
2021/06/27 07:27:15;;;;;;;10.50;9.60;;;;;;;;;;5012258;28;20455;-49
2021/06/27 07:29:41;;;;;;;12.83;11.63;;;;;;;;;;5012148;28;20407;-49
2021/06/27 07:32:07;;;;;;;9.90;9.03;;;;;;;;;;5011879;28;20411;-49
2021/06/27 07:34:33;;;;;;;10.70;9.67;;;;;;;;;;5012195;28;20432;-49
2021/06/27 07:37:03;;;;;;;10.70;9.80;;;;;;;;;;5012093;28;20405;-50
2021/06/27 07:39:28;;;;;;;10.50;8.47;;;;;;;;;;5012179;28;20402;-49
2021/06/27 07:41:54;;;;;;;12.20;11.10;;;;;;;;;;5011582;28;20440;-50
2021/06/27 07:44:20;;;;;;;11.33;10.30;;;;;;;;;;5013787;28;20423;-49
2021/06/27 07:46:46;;;;;;;12.97;11.80;;;;;;;;;;5010226;28;21044;-49
2021/06/27 07:49:12;;;;;;;13.13;11.97;;;;;;;;;;5012330;28;20403;-48
2021/06/27 07:51:38;;;;;;;10.70;9.70;;;;;;;;;;5011450;28;20757;-48
2021/06/27 07:54:04;;;;;;;9.43;8.43;;;;;;;;;;5011907;28;20396;-50
2021/06/27 07:56:30;;;;;;;9.80;9.00;;;;;;;;;;5011718;28;20400;-49
2021/06/27 07:58:56;;;;;;;12.23;11.13;;;;;;;;;;5011706;28;20857;-49
2021/06/27 08:01:25;;;;;;;9.20;8.40;;;;;;;;;;5011304;28;20500;-50
2021/06/27 08:03:51;;;;;;;10.50;9.60;;;;;;;;;;5010174;28;20864;-48
2021/06/27 08:06:18;;;;;;;9.13;8.33;;;;;;;;;;5011570;28;20427;-48
2021/06/27 08:08:44;;;;;;;9.10;8.40;;;;;;;;;;5011393;28;20460;-47
2021/06/27 08:11:10;;;;;;;11.03;10.10;;;;;;;;;;5011229;28;20430;-48
2021/06/27 08:13:36;;;;;;;11.00;9.90;;;;;;;;;;5011324;28;20483;-48
2021/06/27 08:16:02;;;;;;;10.07;9.27;;;;;;;;;;5011496;28;20532;-48
2021/06/27 08:18:28;;;;;;;11.33;9.23;;;;;;;;;;5010939;28;20493;-48
2021/06/27 08:20:54;;;;;;;14.50;13.00;;;;;;;;;;5011155;28;20495;-48
2021/06/27 08:23:20;;;;;;;12.03;8.90;;;;;;;;;;5011364;28;20887;-48
2021/06/27 08:25:46;;;;;;;11.87;10.80;;;;;;;;;;5011437;28;20482;-50
2021/06/27 08:28:12;;;;;;;10.37;9.47;;;;;;;;;;5011301;28;20486;-50
2021/06/27 08:30:38;;;;;;;14.37;12.47;;;;;;;;;;5010819;28;20962;-51
2021/06/27 08:33:04;;;;;;;11.07;10.10;;;;;;;;;;5011281;28;20506;-49
2021/06/27 08:35:30;;;;;;;9.77;9.07;;;;;;;;;;5009892;28;20411;-50
2021/06/27 08:37:56;;;;;;;11.30;10.40;;;;;;;;;;5011420;28;20407;-51
2021/06/27 08:40:24;;;;;;;10.30;9.30;;;;;;;;;;5009961;28;20459;-48
2021/06/27 08:42:50;;;;;;;7.80;7.30;;;;;;;;;;5011439;28;20407;-48
2021/06/27 08:45:17;;;;;;;7.83;7.13;;;;;;;;;;5011193;28;20403;-50
2021/06/27 08:47:43;;;;;;;7.30;6.70;;;;;;;;;;5011157;28;20531;-49
2021/06/27 08:50:10;;;;;;;8.53;7.73;;;;;;;;;;5011105;28;20443;-48
2021/06/27 08:52:36;;;;;;;8.90;8.30;;;;;;;;;;5011052;28;20403;-48
2021/06/27 08:55:03;;;;;;;7.43;6.93;;;;;;;;;;5011079;28;20446;-48
2021/06/27 08:57:29;;;;;;;7.50;6.90;;;;;;;;;;5010948;28;20411;-51
2021/06/27 08:59:55;;;;;;;7.50;6.90;;;;;;;;;;5009847;28;20776;-48
2021/06/27 09:02:21;;;;;;;7.90;7.30;;;;;;;;;;5009397;28;20973;-50
2021/06/27 09:04:47;;;;;;;7.13;6.73;;;;;;;;;;5010973;28;20635;-50
2021/06/27 09:07:30;;;;;;;9.43;8.73;;;;;;;;;;5011041;28;20516;-50
2021/06/27 09:10:07;;;;;;;6.87;6.33;;;;;;;;;;5010830;28;20510;-51
2021/06/27 09:12:53;;;;;;;7.10;6.50;;;;;;;;;;5010222;28;20426;-51
2021/06/27 09:15:34;;;;;;;7.20;6.70;;;;;;;;;;5003699;28;20450;-50
2021/06/27 09:18:01;;;;;;;6.47;5.97;;;;;;;;;;5009409;28;20505;-49
2021/06/27 09:20:27;;;;;;;7.47;6.97;;;;;;;;;;5010417;28;21105;-51
2021/06/27 09:22:54;;;;;;;6.80;6.40;;;;;;;;;;5010530;28;20491;-51
2021/06/27 09:25:20;;;;;;;7.03;6.60;;;;;;;;;;5010860;28;20414;-50
2021/06/27 09:27:47;;;;;;;7.37;6.77;;;;;;;;;;5010548;28;20482;-49
2021/06/27 09:30:16;;;;;;;7.10;6.70;;;;;;;;;;5011577;28;20443;-49
2021/06/27 09:32:53;;;;;;;8.30;7.60;;;;;;;;;;5014264;28;20898;-49
2021/06/27 09:35:34;;;;;;;9.27;8.57;;;;;;;;;;5014502;28;20402;-49
2021/06/27 09:38:17;;;;;;;7.37;6.77;;;;;;;;;;5014280;28;20882;-49
2021/06/27 09:40:43;;;;;;;10.43;9.57;;;;;;;;;;5013980;28;20434;-49
2021/06/27 09:43:09;;;;;;;6.93;6.53;;;;;;;;;;5014194;28;20410;-49
2021/06/27 09:45:52;;;;;;;7.30;6.80;;;;;;;;;;5013985;28;20399;-48
2021/06/27 09:48:18;;;;;;;8.80;8.17;;;;;;;;;;5014040;28;20515;-50
2021/06/27 09:50:44;;;;;;;6.77;6.27;;;;;;;;;;5013683;28;20817;-50
2021/06/27 09:53:29;;;;;;;7.23;6.73;;;;;;;;;;5014109;28;20571;-50
2021/06/27 09:55:55;;;;;;;5.90;5.50;;;;;;;;;;5013797;28;20402;-51
2021/06/27 09:58:21;;;;;;;7.53;6.93;;;;;;;;;;5013812;28;20403;-50
2021/06/27 10:00:47;;;;;;;7.13;6.63;;;;;;;;;;5013614;28;20419;-49
2021/06/27 10:03:13;;;;;;;6.50;5.90;;;;;;;;;;5013946;28;20411;-51
2021/06/27 10:05:39;;;;;;;7.27;6.77;;;;;;;;;;5013782;28;20171;-50
2021/06/27 10:08:05;;;;;;;7.27;6.67;;;;;;;;;;5013824;28;20196;-49
2021/06/27 10:10:31;;;;;;;7.80;7.30;;;;;;;;;;5013455;28;20423;-51
2021/06/27 10:12:57;;;;;;;21.70;19.60;;;;;;;;;;5013517;28;20426;-51
2021/06/27 10:15:23;;;;;;;9.17;8.37;;;;;;;;;;5013696;28;20875;-50
2021/06/27 10:17:49;;;;;;;6.97;6.47;;;;;;;;;;5013485;28;20442;-50
2021/06/27 10:20:16;;;;;;;8.47;7.73;;;;;;;;;;5013494;28;20431;-48
2021/06/27 10:22:42;;;;;;;6.90;6.30;;;;;;;;;;5013427;28;20454;-52
2021/06/27 10:25:10;;;;;;;7.40;6.90;;;;;;;;;;5013548;28;20411;-49
2021/06/27 10:27:36;;;;;;;7.00;6.40;;;;;;;;;;5013159;28;20455;-52
2021/06/27 10:30:03;;;;;;;7.47;6.80;;;;;;;;;;5013280;28;20442;-51
2021/06/27 10:32:29;;;;;;;6.33;5.93;;;;;;;;;;5013127;28;20410;-52
2021/06/27 10:34:56;;;;;;;12.80;11.53;;;;;;;;;;5013430;28;20395;-52
2021/06/27 10:37:27;;;;;;;6.40;6.00;;;;;;;;;;5013419;28;20449;-52
2021/06/27 10:40:04;;;;;;;6.20;5.80;;;;;;;;;;5013137;28;20773;-49
2021/06/27 10:42:48;;;;;;;5.50;5.20;;;;;;;;;;5012495;28;20777;-52
2021/06/27 10:45:16;;;;;;;5.73;5.33;;;;;;;;;;5013291;28;20766;-51
2021/06/27 10:47:42;;;;;;;5.87;5.37;;;;;;;;;;5011901;28;20459;-51
2021/06/27 10:50:09;;;;;;;5.73;5.23;;;;;;;;;;5012958;28;20423;-50
2021/06/27 10:52:54;;;;;;;6.47;6.07;;;;;;;;;;5012642;28;20395;-50
2021/06/27 10:55:26;;;;;;;6.37;5.97;;;;;;;;;;5012793;28;20403;-51
2021/06/27 10:58:02;;;;;;;7.10;6.50;;;;;;;;;;5012889;28;20423;-52
2021/06/27 11:00:48;;;;;;;6.00;5.60;;;;;;;;;;5012415;28;20430;-51
2021/06/27 11:03:27;;;;;;;6.10;5.80;;;;;;;;;;5012638;28;20422;-50
2021/06/27 11:05:57;;;;;;;19.17;17.57;;;;;;;;;;5012559;28;20399;-51
2021/06/27 11:08:29;;;;;;;8.23;7.63;;;;;;;;;;5012801;28;20553;-49
2021/06/27 11:10:59;;;;;;;8.00;7.30;;;;;;;;;;5012178;28;20469;-49
2021/06/27 11:13:25;;;;;;;8.10;7.50;;;;;;;;;;5012570;28;20902;-48
2021/06/27 11:15:51;;;;;;;6.90;6.40;;;;;;;;;;5012434;28;20494;-50
2021/06/27 11:18:31;;;;;;;7.50;7.00;;;;;;;;;;5012582;28;20481;-49
2021/06/27 11:20:57;;;;;;;6.50;6.00;;;;;;;;;;5012206;28;20434;-49
2021/06/27 11:23:42;;;;;;;6.70;6.20;;;;;;;;;;5012324;28;20403;-49
2021/06/27 11:26:08;;;;;;;6.27;5.67;;;;;;;;;;5012208;28;20425;-51
2021/06/27 11:28:35;;;;;;;5.90;5.57;;;;;;;;;;5012377;28;20537;-49
2021/06/27 11:31:20;;;;;;;6.30;5.80;;;;;;;;;;5011853;28;21021;-52
2021/06/27 11:33:45;;;;;;;8.20;7.60;;;;;;;;;;5012619;28;20406;-49
2021/06/27 11:36:29;;;;;;;6.60;6.00;;;;;;;;;;5012168;28;20395;-49
2021/06/27 11:38:55;;;;;;;6.17;5.77;;;;;;;;;;5012097;28;20410;-51
2021/06/27 11:41:21;;;;;;;6.30;5.90;;;;;;;;;;5011706;28;20820;-51
2021/06/27 11:43:52;;;;;;;9.03;5.17;;;;;;;;;;5011944;28;20407;-50
2021/06/27 11:46:47;;;;;;;5.30;5.00;;;;;;;;;;5012002;28;20655;-50
2021/06/27 11:49:14;;;;;;;5.93;5.53;;;;;;;;;;5010306;28;20418;-49
2021/06/27 11:51:42;;;;;;;6.90;6.30;;;;;;;;;;5011768;28;20494;-49
2021/06/27 11:54:09;;;;;;;8.07;7.00;;;;;;;;;;5010813;28;21001;-49
2021/06/27 11:56:54;;;;;;;7.87;7.27;;;;;;;;;;5011842;28;20394;-49
2021/06/27 11:59:22;;;;;;;6.80;6.30;;;;;;;;;;5011578;28;20425;-50
2021/06/27 12:02:07;;;;;;;6.50;5.90;;;;;;;;;;5011505;28;20450;-50
2021/06/27 12:04:41;;;;;;;5.47;5.07;;;;;;;;;;5011472;28;20906;-49
2021/06/27 12:07:26;;;;;;;5.43;5.13;;;;;;;;;;5011601;28;20947;-49
2021/06/27 12:09:53;;;;;;;5.07;4.77;;;;;;;;;;5011265;28;20403;-49
2021/06/27 12:12:34;;;;;;;5.67;5.17;;;;;;;;;;5011177;28;20773;-49
2021/06/27 12:15:00;;;;;;;9.23;5.70;;;;;;;;;;5011542;28;21077;-49
2021/06/27 12:17:26;;;;;;;5.40;5.10;;;;;;;;;;5011372;28;20555;-49
2021/06/27 12:19:53;;;;;;;5.87;5.40;;;;;;;;;;5011367;28;20887;-50
2021/06/27 12:22:19;;;;;;;5.23;4.93;;;;;;;;;;5010980;28;21014;-50
2021/06/27 12:24:45;;;;;;;6.20;5.80;;;;;;;;;;5011459;28;20919;-50
2021/06/27 12:27:12;;;;;;;6.30;5.80;;;;;;;;;;5011311;28;21176;-49
2021/06/27 12:29:50;;;;;;;6.23;5.10;;;;;;;;;;5011447;28;20410;-49
2021/06/27 12:32:16;;;;;;;5.20;4.90;;;;;;;;;;5010923;28;20412;-49
2021/06/27 12:34:42;;;;;;;5.33;4.97;;;;;;;;;;5011119;28;20403;-50
2021/06/27 12:37:08;;;;;;;6.60;6.00;;;;;;;;;;5011054;28;20183;-50
2021/06/27 12:39:36;;;;;;;4.70;4.40;;;;;;;;;;5011132;28;20481;-50
2021/06/27 12:42:10;;;;;;;5.83;5.40;;;;;;;;;;5010853;28;20430;-50
2021/06/27 12:44:37;;;;;;;5.70;5.40;;;;;;;;;;5011000;28;20422;-49
2021/06/27 12:47:03;;;;;;;5.53;5.23;;;;;;;;;;5010893;28;20450;-49
2021/06/27 12:49:31;;;;;;;6.23;5.70;;;;;;;;;;5010945;28;20407;-49
2021/06/27 12:51:58;;;;;;;5.70;5.30;;;;;;;;;;5010890;28;20434;-51
2021/06/27 12:54:24;;;;;;;6.50;6.03;;;;;;;;;;5010897;28;20445;-49
2021/06/27 12:57:04;;;;;;;5.50;5.20;;;;;;;;;;5011038;28;20434;-50
2021/06/27 12:59:36;;;;;;;6.90;6.40;;;;;;;;;;5010702;28;20913;-50
2021/06/27 13:02:03;;;;;;;5.77;5.37;;;;;;;;;;5010589;28;20785;-50
2021/06/27 13:04:49;;;;;;;6.53;5.90;;;;;;;;;;5010991;28;20546;-49
2021/06/27 13:07:34;;;;;;;5.90;5.60;;;;;;;;;;5014676;28;20942;-49
2021/06/27 13:10:03;;;;;;;7.83;7.20;;;;;;;;;;5014510;28;20506;-49
2021/06/27 13:12:30;;;;;;;5.70;5.20;;;;;;;;;;5014869;28;20456;-49
2021/06/27 13:15:11;;;;;;;5.57;5.27;;;;;;;;;;5014683;28;20410;-50
2021/06/27 13:17:49;;;;;;;5.70;5.20;;;;;;;;;;5014848;28;20499;-49
2021/06/27 13:20:17;;;;;;;6.10;5.70;;;;;;;;;;5014467;28;20814;-50
2021/06/27 13:22:53;;;;;;;6.30;5.80;;;;;;;;;;5014524;28;20414;-49
2021/06/27 13:25:28;;;;;;;4.93;4.73;;;;;;;;;;5014682;28;20883;-49
2021/06/27 13:27:55;;;;;;;5.57;5.03;;;;;;;;;;5014637;28;20457;-50
2021/06/27 13:30:22;;;;;;;5.63;5.33;;;;;;;;;;5014232;28;20439;-49
2021/06/27 13:32:48;;;;;;;5.80;5.50;;;;;;;;;;5014447;28;20456;-50
2021/06/27 13:35:33;;;;;;;6.40;6.00;;;;;;;;;;5014408;28;20402;-49
2021/06/27 13:38:00;;;;;;;5.90;5.50;;;;;;;;;;5014287;28;20203;-49
2021/06/27 13:40:26;;;;;;;5.77;5.47;;;;;;;;;;5014078;28;20923;-49
2021/06/27 13:42:53;;;;;;;7.53;5.97;;;;;;;;;;5014189;28;20403;-51
2021/06/27 13:45:21;;;;;;;5.10;4.77;;;;;;;;;;5014286;28;20439;-49
2021/06/27 13:47:48;;;;;;;6.80;5.53;;;;;;;;;;5013983;28;20450;-50
2021/06/27 13:50:14;;;;;;;5.23;4.70;;;;;;;;;;5014041;28;20430;-49
2021/06/27 13:52:40;;;;;;;5.93;5.50;;;;;;;;;;5014025;28;20399;-48
2021/06/27 13:55:07;;;;;;;5.67;5.30;;;;;;;;;;5014180;28;20438;-48
2021/06/27 13:57:33;;;;;;;5.77;5.27;;;;;;;;;;5014043;28;20411;-49
2021/06/27 13:59:59;;;;;;;6.37;5.97;;;;;;;;;;5014045;28;21141;-49
2021/06/27 14:02:25;;;;;;;7.03;6.07;;;;;;;;;;5013868;28;20410;-49
2021/06/27 14:04:50;;;;;;;5.60;5.30;;;;;;;;;;5014348;28;20883;-49
2021/06/27 14:07:16;;;;;;;5.80;5.40;;;;;;;;;;5013947;28;20451;-48
2021/06/27 14:09:44;;;;;;;5.83;5.43;;;;;;;;;;5013962;28;20437;-49
2021/06/27 14:12:10;;;;;;;6.10;5.70;;;;;;;;;;5013666;28;20449;-50
2021/06/27 14:14:36;;;;;;;5.60;5.20;;;;;;;;;;5013678;28;20745;-49
2021/06/27 14:17:02;;;;;;;6.33;5.93;;;;;;;;;;5012673;28;20945;-50
2021/06/27 14:19:28;;;;;;;5.83;5.33;;;;;;;;;;5013810;28;20454;-49
2021/06/27 14:21:55;;;;;;;5.70;5.30;;;;;;;;;;5013315;28;20918;-50
2021/06/27 14:24:21;;;;;;;6.40;5.90;;;;;;;;;;5013617;28;20415;-48
2021/06/27 14:26:48;;;;;;;5.70;5.40;;;;;;;;;;5013412;28;20410;-48
2021/06/27 14:29:14;;;;;;;8.53;7.63;;;;;;;;;;5013337;28;20945;-48
2021/06/27 14:31:40;;;;;;;6.33;5.60;;;;;;;;;;5013084;28;20446;-48